Time;durP1;ratioP1;P1;durP2;ratioP2;P2;SDS_P1;SDS_P2;PMS_P1;PMS_P2;Temp;Humidity;BMP_temperature;BMP_pressure;BME280_temperature;BME280_humidity;BME280_pressure;Samples;Min_cycle;Max_cycle;Signal;HPM_P1;HPM_P2
2021/06/18 04:01:28;;;;;;;15.30;14.10;;;21.70;99.90;;;;;;5445947;23;20632;-69
2021/06/18 04:03:58;;;;;;;15.80;14.30;;;21.80;99.90;;;;;;4938484;29;20473;-67
2021/06/18 04:06:28;;;;;;;15.57;14.30;;;21.80;99.90;;;;;;4946833;29;20506;-70
2021/06/18 04:08:56;;;;;;;15.47;14.50;;;21.90;99.90;;;;;;4945430;29;20557;-69
2021/06/18 04:11:23;;;;;;;16.23;14.90;;;21.90;99.90;;;;;;4949348;29;20485;-69
2021/06/18 04:13:50;;;;;;;15.47;14.37;;;22.00;99.90;;;;;;4949072;29;20469;-68
2021/06/18 04:16:17;;;;;;;15.30;14.33;;;22.10;99.90;;;;;;4942009;29;20465;-67
2021/06/18 04:18:46;;;;;;;16.80;15.70;;;22.20;99.90;;;;;;4936330;29;20477;-66
2021/06/18 04:21:15;;;;;;;14.77;13.80;;;22.30;99.90;;;;;;4940156;29;20494;-70
2021/06/18 04:23:42;;;;;;;14.67;13.57;;;22.50;99.90;;;;;;4936538;29;20476;-71
2021/06/18 04:26:08;;;;;;;13.27;12.37;;;23.00;99.90;;;;;;4935807;29;20952;-69
2021/06/18 04:28:36;;;;;;;13.60;12.70;;;23.60;99.90;;;;;;4936439;29;20845;-69
2021/06/18 04:31:04;;;;;;;13.00;12.20;;;24.30;99.90;;;;;;4935845;29;20486;-69
2021/06/18 04:33:31;;;;;;;12.63;11.97;;;24.90;99.90;;;;;;4935892;29;20839;-69
2021/06/18 04:35:59;;;;;;;13.03;12.33;;;25.50;99.90;;;;;;4935923;29;20569;-69
2021/06/18 04:38:26;;;;;;;12.13;11.50;;;25.90;99.90;;;;;;4936033;29;20495;-69
2021/06/18 04:40:53;;;;;;;13.07;11.97;;;26.30;99.90;;;;;;4935772;29;20502;-68
2021/06/18 04:43:20;;;;;;;13.13;12.43;;;26.70;99.90;;;;;;4924744;29;20478;-68
2021/06/18 04:45:47;;;;;;;12.50;11.67;;;27.00;99.90;;;;;;4916528;29;20475;-69
2021/06/18 04:48:14;;;;;;;11.67;11.07;;;27.40;99.90;;;;;;4916333;29;20568;-68
2021/06/18 04:50:41;;;;;;;11.47;10.90;;;27.70;99.90;;;;;;4916545;29;20572;-70
2021/06/18 04:53:10;;;;;;;11.90;11.40;;;28.10;99.90;;;;;;4915487;29;20945;-69
2021/06/18 04:55:37;;;;;;;11.97;11.30;;;28.40;99.90;;;;;;4916330;29;20471;-67
2021/06/18 04:58:04;;;;;;;11.50;10.97;;;28.40;99.90;;;;;;4915955;29;20475;-67
2021/06/18 05:00:32;;;;;;;10.87;10.47;;;28.60;99.90;;;;;;4917286;29;20508;-68
2021/06/18 05:02:59;;;;;;;12.40;11.60;;;28.80;99.90;;;;;;4915929;29;20958;-68
2021/06/18 05:05:26;;;;;;;11.90;11.10;;;29.10;99.90;;;;;;4916692;29;20476;-68
2021/06/18 05:07:53;;;;;;;11.40;10.73;;;29.50;99.90;;;;;;4915275;29;20859;-68
2021/06/18 05:10:22;;;;;;;11.53;11.03;;;29.60;99.90;;;;;;4916912;29;20544;-67
2021/06/18 05:12:48;;;;;;;10.73;10.30;;;29.70;99.90;;;;;;4916181;29;20469;-69
2021/06/18 05:15:16;;;;;;;11.03;10.47;;;30.00;99.90;;;;;;4916145;29;20482;-70
2021/06/18 05:17:43;;;;;;;10.97;10.47;;;30.20;99.90;;;;;;4916040;29;20509;-70
2021/06/18 05:20:12;;;;;;;11.23;10.67;;;30.40;99.60;;;;;;4916108;29;20501;-69
2021/06/18 05:22:38;;;;;;;11.60;10.80;;;30.50;98.30;;;;;;4915754;29;20539;-69
2021/06/18 05:25:06;;;;;;;11.33;10.63;;;30.60;97.80;;;;;;4915970;29;20495;-70
2021/06/18 05:27:34;;;;;;;10.97;10.47;;;30.70;96.90;;;;;;4915912;29;20519;-70
2021/06/18 05:30:01;;;;;;;11.10;10.53;;;30.90;96.20;;;;;;4916245;29;20464;-70
2021/06/18 05:32:27;;;;;;;12.60;11.90;;;30.80;96.10;;;;;;4924679;28;20510;-69
2021/06/18 05:34:54;;;;;;;11.20;10.70;;;31.10;95.30;;;;;;4935220;29;20468;-69
2021/06/18 05:37:21;;;;;;;11.00;10.50;;;31.00;94.90;;;;;;4934035;29;20480;-69
2021/06/18 05:39:47;;;;;;;11.80;11.20;;;30.90;94.30;;;;;;4934840;29;20832;-69
2021/06/18 05:42:14;;;;;;;10.60;10.20;;;30.80;94.70;;;;;;4934448;29;20498;-67
2021/06/18 05:44:42;;;;;;;11.40;10.90;;;31.10;94.70;;;;;;4934725;29;20468;-67
2021/06/18 05:47:08;;;;;;;10.40;9.97;;;31.30;94.40;;;;;;4934953;29;20473;-67
2021/06/18 05:49:35;;;;;;;10.67;10.27;;;31.40;94.60;;;;;;4935825;29;20467;-67
2021/06/18 05:52:02;;;;;;;12.87;11.90;;;31.40;93.70;;;;;;4937796;29;20498;-67
2021/06/18 05:54:29;;;;;;;11.10;10.57;;;31.00;94.00;;;;;;4938932;29;20494;-68
2021/06/18 05:56:55;;;;;;;11.13;10.63;;;31.10;93.80;;;;;;4939184;29;20468;-68
2021/06/18 05:59:22;;;;;;;10.33;9.97;;;31.60;93.80;;;;;;4939930;29;20479;-67
2021/06/18 06:01:50;;;;;;;12.00;11.10;;;31.80;92.40;;;;;;4938306;29;20861;-67
2021/06/18 06:04:16;;;;;;;11.47;10.90;;;32.00;92.00;;;;;;4938289;29;20465;-67
2021/06/18 06:06:43;;;;;;;11.53;10.93;;;32.00;92.10;;;;;;4937743;28;20478;-68
2021/06/18 06:09:10;;;;;;;11.90;11.20;;;31.90;92.50;;;;;;4939649;29;20473;-69
2021/06/18 06:11:36;;;;;;;11.50;10.90;;;32.10;92.40;;;;;;4938365;29;20485;-68
2021/06/18 06:14:04;;;;;;;11.60;10.90;;;32.60;91.40;;;;;;4938606;29;20485;-67
2021/06/18 06:16:32;;;;;;;12.90;12.30;;;32.40;91.10;;;;;;4938207;29;20906;-68
2021/06/18 06:19:01;;;;;;;12.30;11.80;;;32.50;90.60;;;;;;4938884;29;20484;-67
2021/06/18 06:21:28;;;;;;;11.60;11.10;;;32.60;90.60;;;;;;4933078;29;20995;-68
2021/06/18 06:23:55;;;;;;;12.30;11.63;;;32.40;90.50;;;;;;4919255;29;20478;-68
2021/06/18 06:26:23;;;;;;;12.10;11.50;;;32.40;90.90;;;;;;4919611;29;20465;-68
2021/06/18 06:28:49;;;;;;;12.77;12.17;;;32.80;90.40;;;;;;4919878;29;20482;-69
2021/06/18 06:31:16;;;;;;;11.00;10.60;;;32.80;90.00;;;;;;4919104;29;21022;-69
2021/06/18 06:33:43;;;;;;;12.33;11.83;;;33.20;90.10;;;;;;4919164;29;20807;-69
2021/06/18 06:36:11;;;;;;;12.67;11.97;;;32.70;89.10;;;;;;4918819;29;20474;-68
2021/06/18 06:38:38;;;;;;;13.00;12.40;;;32.80;90.40;;;;;;4918961;29;20478;-68
2021/06/18 06:41:05;;;;;;;12.00;11.40;;;32.70;90.50;;;;;;4919183;29;20565;-69
2021/06/18 06:43:32;;;;;;;12.57;11.97;;;33.00;90.40;;;;;;4922745;29;20478;-69
2021/06/18 06:45:59;;;;;;;13.17;12.50;;;33.70;89.20;;;;;;4919851;29;20474;-67
2021/06/18 06:48:26;;;;;;;11.80;11.30;;;34.00;86.40;;;;;;4920231;29;20470;-69
2021/06/18 06:50:52;;;;;;;11.70;11.23;;;33.70;86.90;;;;;;4919421;29;20482;-69
2021/06/18 06:53:21;;;;;;;11.90;11.37;;;33.80;86.40;;;;;;4918266;29;20478;-69
2021/06/18 06:55:47;;;;;;;11.53;10.90;;;33.50;86.30;;;;;;4918874;29;20965;-69
2021/06/18 06:58:14;;;;;;;11.50;11.00;;;33.40;87.50;;;;;;4918427;29;20474;-69
2021/06/18 07:00:41;;;;;;;11.20;10.70;;;33.30;85.70;;;;;;4918131;29;20505;-69
2021/06/18 07:03:07;;;;;;;12.57;11.90;;;33.10;86.60;;;;;;4917466;29;20831;-69
2021/06/18 07:05:34;;;;;;;11.03;10.57;;;33.30;87.30;;;;;;4918355;29;20466;-69
2021/06/18 07:08:13;;;;;;;11.20;10.60;;;33.70;86.20;;;;;;4917266;29;20474;-69
2021/06/18 07:10:41;;;;;;;11.13;10.63;;;34.20;83.60;;;;;;4918814;29;20827;-69
2021/06/18 07:13:07;;;;;;;9.77;9.37;;;34.40;82.70;;;;;;4936985;29;20507;-69
2021/06/18 07:15:34;;;;;;;10.60;10.20;;;34.80;81.80;;;;;;4937210;29;20468;-69
2021/06/18 07:18:01;;;;;;;9.23;8.87;;;35.10;79.50;;;;;;4936913;29;20469;-69
2021/06/18 07:20:27;;;;;;;9.30;8.70;;;35.10;80.50;;;;;;4937007;29;20497;-69
2021/06/18 07:22:54;;;;;;;9.43;9.13;;;35.20;78.10;;;;;;4936109;29;20540;-69
2021/06/18 07:25:21;;;;;;;10.47;10.17;;;35.60;77.50;;;;;;4937310;29;20796;-69
2021/06/18 07:27:49;;;;;;;10.43;9.87;;;35.20;77.80;;;;;;4936894;29;20477;-69
2021/06/18 07:30:16;;;;;;;9.90;9.30;;;35.20;77.80;;;;;;4936904;29;20461;-68
2021/06/18 07:32:43;;;;;;;9.80;9.20;;;35.40;78.60;;;;;;4936374;29;20473;-68
2021/06/18 07:35:10;;;;;;;10.37;9.87;;;35.80;78.20;;;;;;4937077;29;20909;-69
2021/06/18 07:37:37;;;;;;;10.20;9.70;;;36.10;76.10;;;;;;4935670;29;20473;-68
2021/06/18 07:40:05;;;;;;;8.77;8.50;;;36.30;75.10;;;;;;4936882;29;20465;-68
2021/06/18 07:42:31;;;;;;;9.67;9.20;;;36.30;75.20;;;;;;4931662;29;20826;-68
2021/06/18 07:44:59;;;;;;;9.70;9.30;;;36.30;73.60;;;;;;4935864;29;20493;-69
2021/06/18 07:47:26;;;;;;;9.60;9.27;;;36.40;74.30;;;;;;4936293;29;20472;-69
2021/06/18 07:49:53;;;;;;;9.90;9.50;;;36.40;72.40;;;;;;4936804;29;20496;-69
2021/06/18 07:52:20;;;;;;;9.70;9.40;;;36.20;73.80;;;;;;4935412;29;20497;-69
2021/06/18 07:54:47;;;;;;;9.87;9.47;;;36.20;73.10;;;;;;4936879;29;20470;-69
2021/06/18 07:57:16;;;;;;;9.53;9.23;;;36.00;73.70;;;;;;4936294;29;20510;-69
2021/06/18 07:59:42;;;;;;;9.07;8.57;;;35.80;71.50;;;;;;4936882;29;20560;-68
2021/06/18 08:02:10;;;;;;;9.70;9.20;;;35.20;72.70;;;;;;4935924;29;20494;-66
2021/06/18 08:04:37;;;;;;;8.63;8.40;;;35.10;71.80;;;;;;4936703;29;20484;-66
2021/06/18 08:07:04;;;;;;;9.23;8.73;;;34.90;72.50;;;;;;4935239;28;20477;-66
2021/06/18 08:09:31;;;;;;;8.97;8.57;;;35.10;72.80;;;;;;4936458;29;20465;-66
2021/06/18 08:11:58;;;;;;;8.87;8.43;;;35.50;72.10;;;;;;4935928;29;20490;-67
2021/06/18 08:14:24;;;;;;;10.03;9.33;;;35.60;70.50;;;;;;4936158;29;20473;-67
2021/06/18 08:16:51;;;;;;;8.87;8.37;;;35.60;70.40;;;;;;4936672;29;20466;-67
2021/06/18 08:19:19;;;;;;;9.20;8.70;;;35.60;71.00;;;;;;4937400;29;20466;-67
2021/06/18 08:21:45;;;;;;;9.27;8.60;;;36.00;71.10;;;;;;4936464;29;20520;-68
2021/06/18 08:24:13;;;;;;;8.20;7.90;;;36.30;68.60;;;;;;4937980;29;20579;-68
2021/06/18 08:26:40;;;;;;;9.00;8.40;;;36.00;69.20;;;;;;4937023;29;20493;-68
2021/06/18 08:29:07;;;;;;;8.60;8.30;;;35.80;69.90;;;;;;4937915;29;20955;-68
2021/06/18 08:31:33;;;;;;;9.23;8.93;;;36.10;69.70;;;;;;4935938;29;20523;-68
2021/06/18 08:34:00;;;;;;;9.20;8.90;;;36.10;69.20;;;;;;4935965;29;20469;-68
2021/06/18 08:36:29;;;;;;;10.10;9.40;;;36.30;70.00;;;;;;4934915;29;20494;-68
2021/06/18 08:38:56;;;;;;;9.50;9.10;;;35.90;69.30;;;;;;4936044;29;20465;-68
2021/06/18 08:41:23;;;;;;;8.97;8.57;;;35.70;70.20;;;;;;4935219;29;20997;-68
2021/06/18 08:43:50;;;;;;;9.23;8.80;;;35.80;71.00;;;;;;4935181;29;20465;-67
2021/06/18 08:46:16;;;;;;;9.97;9.60;;;36.00;70.50;;;;;;4935551;29;20473;-67
2021/06/18 08:48:43;;;;;;;9.43;9.00;;;35.80;70.00;;;;;;4935446;29;20476;-67
2021/06/18 08:51:10;;;;;;;9.37;8.97;;;35.80;70.90;;;;;;4935024;29;20596;-69
2021/06/18 08:53:38;;;;;;;8.93;8.53;;;36.00;69.70;;;;;;4935345;29;20477;-69
2021/06/18 08:56:06;;;;;;;9.50;9.20;;;36.30;68.90;;;;;;4935732;29;20470;-68
2021/06/18 08:58:33;;;;;;;8.77;8.30;;;36.30;69.30;;;;;;4935442;29;20545;-68
2021/06/18 09:01:00;;;;;;;9.30;8.80;;;36.20;69.10;;;;;;4934965;29;20504;-68
2021/06/18 09:03:38;;;;;;;8.73;8.40;;;36.40;69.00;;;;;;4934614;29;20473;-68
2021/06/18 09:06:24;;;;;;;8.10;7.80;;;36.30;67.40;;;;;;4934713;28;20474;-66
2021/06/18 09:09:09;;;;;;;8.90;8.60;;;36.20;65.80;;;;;;4935260;29;20473;-66
2021/06/18 09:11:36;;;;;;;8.40;8.20;;;36.10;66.60;;;;;;4931567;29;20497;-67
2021/06/18 09:14:24;;;;;;;9.63;9.27;;;36.10;68.20;;;;;;4934852;29;20470;-66
2021/06/18 09:17:09;;;;;;;9.70;9.20;;;35.80;67.00;;;;;;4934596;29;20821;-69
2021/06/18 09:19:41;;;;;;;9.83;9.53;;;35.30;68.60;;;;;;4935686;29;20469;-67
2021/06/18 09:22:09;;;;;;;9.70;9.30;;;34.80;70.40;;;;;;4933785;29;20508;-67
2021/06/18 09:24:39;;;;;;;9.57;9.17;;;34.90;71.40;;;;;;4934360;29;20966;-67
2021/06/18 09:27:07;;;;;;;9.90;9.50;;;35.10;71.10;;;;;;4934856;29;20476;-67
2021/06/18 09:29:35;;;;;;;9.20;8.90;;;35.20;71.40;;;;;;4934923;29;20469;-67
2021/06/18 09:32:04;;;;;;;9.30;8.90;;;35.50;69.30;;;;;;4934862;29;20493;-67
2021/06/18 09:34:39;;;;;;;9.67;9.17;;;35.70;68.60;;;;;;4935235;29;20580;-67
2021/06/18 09:37:31;;;;;;;8.27;8.00;;;35.80;67.80;;;;;;4934049;29;20489;-67
2021/06/18 09:40:12;;;;;;;10.07;9.73;;;35.90;67.70;;;;;;4934804;29;20541;-67
2021/06/18 09:42:56;;;;;;;9.60;9.10;;;35.40;68.10;;;;;;4934534;29;20553;-67
2021/06/18 09:45:25;;;;;;;8.77;8.47;;;35.00;68.50;;;;;;4934840;29;20822;-67
2021/06/18 09:47:51;;;;;;;8.83;8.53;;;34.40;68.90;;;;;;4934623;29;20977;-67
2021/06/18 09:50:27;;;;;;;10.03;9.60;;;34.30;68.90;;;;;;4934634;29;20469;-67
2021/06/18 09:53:14;;;;;;;10.07;9.50;;;34.50;68.70;;;;;;4933675;29;20949;-67
2021/06/18 09:55:43;;;;;;;9.47;9.17;;;34.60;69.30;;;;;;4934779;29;20465;-67
2021/06/18 09:58:11;;;;;;;9.20;8.80;;;34.60;68.70;;;;;;4934405;29;20497;-67
2021/06/18 10:00:38;;;;;;;8.60;8.20;;;34.70;68.40;;;;;;4924996;29;20567;-67
2021/06/18 10:03:10;;;;;;;8.50;8.10;;;34.70;68.10;;;;;;4915415;29;20493;-67
2021/06/18 10:05:39;;;;;;;8.10;7.60;;;34.50;67.10;;;;;;4916148;29;20571;-67
2021/06/18 10:08:06;;;;;;;7.67;7.47;;;34.50;65.30;;;;;;4915007;29;20481;-67
2021/06/18 10:10:35;;;;;;;7.77;7.47;;;34.30;65.00;;;;;;4915729;29;20875;-67
2021/06/18 10:13:04;;;;;;;8.00;7.70;;;34.30;65.70;;;;;;4915428;29;20564;-67
2021/06/18 10:15:36;;;;;;;8.63;8.27;;;34.30;66.40;;;;;;4915707;29;20453;-66
2021/06/18 10:18:03;;;;;;;8.10;7.80;;;34.40;65.80;;;;;;4915823;29;20526;-67
2021/06/18 10:20:31;;;;;;;8.40;7.80;;;34.40;64.40;;;;;;4915963;29;20496;-68
2021/06/18 10:23:01;;;;;;;8.27;7.87;;;34.40;64.80;;;;;;4914958;29;21005;-68
2021/06/18 10:25:33;;;;;;;8.57;8.27;;;34.40;65.10;;;;;;4916274;29;20477;-68
2021/06/18 10:28:06;;;;;;;9.60;8.90;;;34.30;66.00;;;;;;4918734;29;20476;-68
2021/06/18 10:30:35;;;;;;;8.37;7.97;;;34.30;66.50;;;;;;4917792;29;20492;-68
2021/06/18 10:33:23;;;;;;;9.43;8.97;;;34.30;65.80;;;;;;4930477;29;20511;-68
2021/06/18 10:35:52;;;;;;;8.10;7.70;;;34.20;65.90;;;;;;4941693;29;20472;-68
2021/06/18 10:38:28;;;;;;;8.83;8.30;;;34.00;65.80;;;;;;4944495;29;20468;-68
2021/06/18 10:40:56;;;;;;;8.10;7.70;;;33.90;63.70;;;;;;4945296;29;20575;-68
2021/06/18 10:43:37;;;;;;;8.20;7.80;;;34.00;64.70;;;;;;4938128;29;20523;-68
2021/06/18 10:46:23;;;;;;;8.03;7.57;;;34.20;64.70;;;;;;4938126;29;20468;-68
2021/06/18 10:49:14;;;;;;;7.67;7.47;;;34.30;65.00;;;;;;4937847;29;20483;-67
2021/06/18 10:51:43;;;;;;;8.63;8.23;;;34.50;63.40;;;;;;4937137;29;20488;-67
2021/06/18 10:54:15;;;;;;;8.00;7.60;;;34.60;63.30;;;;;;4937534;29;20461;-67
2021/06/18 10:57:03;;;;;;;8.17;7.80;;;34.40;62.80;;;;;;4937251;29;20465;-67
2021/06/18 10:59:42;;;;;;;7.60;7.40;;;34.30;62.70;;;;;;4937683;29;20475;-67
2021/06/18 11:02:33;;;;;;;7.53;7.33;;;34.00;63.40;;;;;;4936865;29;20515;-67
2021/06/18 11:05:01;;;;;;;8.40;8.10;;;34.10;63.80;;;;;;4937619;29;20491;-67
2021/06/18 11:07:29;;;;;;;7.67;7.47;;;34.00;64.50;;;;;;4936436;29;20491;-67
2021/06/18 11:09:56;;;;;;;8.00;7.70;;;34.10;65.40;;;;;;4937560;29;20496;-69
2021/06/18 11:12:59;;;;;;;8.77;8.30;;;34.30;63.50;;;;;;4937123;29;20535;-68
2021/06/18 11:15:44;;;;;;;9.13;8.63;;;34.40;63.60;;;;;;4937394;29;20471;-69
2021/06/18 11:18:15;;;;;;;7.90;7.53;;;34.50;64.20;;;;;;4936981;29;20475;-68
2021/06/18 11:20:59;;;;;;;7.57;7.37;;;34.50;61.70;;;;;;4937163;29;20511;-69
2021/06/18 11:23:30;;;;;;;7.90;7.70;;;34.40;63.10;;;;;;4931819;28;20570;-68
2021/06/18 11:26:05;;;;;;;7.33;7.03;;;34.40;64.60;;;;;;4937254;29;20559;-67
2021/06/18 11:28:50;;;;;;;7.30;7.10;;;34.40;62.60;;;;;;4937105;29;20483;-66
2021/06/18 11:31:39;;;;;;;7.13;6.93;;;34.60;61.70;;;;;;4936948;29;20492;-67
2021/06/18 11:34:06;;;;;;;7.73;7.50;;;34.70;61.50;;;;;;4936933;29;20526;-66
2021/06/18 11:36:42;;;;;;;7.63;7.43;;;34.70;62.90;;;;;;4935914;29;20476;-67
2021/06/18 11:39:17;;;;;;;7.37;6.97;;;34.80;62.10;;;;;;4937202;29;20913;-67
2021/06/18 11:41:48;;;;;;;7.40;7.10;;;34.80;61.50;;;;;;4936707;29;20489;-67
2021/06/18 11:44:19;;;;;;;6.83;6.63;;;34.80;61.00;;;;;;4936799;29;20474;-67
2021/06/18 11:46:51;;;;;;;7.40;7.07;;;34.70;61.80;;;;;;4936618;29;20515;-67
2021/06/18 11:49:20;;;;;;;7.13;6.93;;;34.60;62.00;;;;;;4936538;29;20453;-67
2021/06/18 11:51:48;;;;;;;6.63;6.43;;;34.60;62.20;;;;;;4935889;29;20540;-67
2021/06/18 11:54:22;;;;;;;6.70;6.50;;;34.70;60.80;;;;;;4936603;29;20465;-69
2021/06/18 11:56:49;;;;;;;6.30;6.03;;;34.70;61.10;;;;;;4936525;29;20475;-69
2021/06/18 11:59:16;;;;;;;7.83;7.37;;;34.90;62.10;;;;;;4936532;29;20464;-69
2021/06/18 12:01:42;;;;;;;7.30;7.10;;;35.00;61.70;;;;;;4918109;29;20497;-67
2021/06/18 12:04:16;;;;;;;7.70;7.40;;;34.90;60.90;;;;;;4917414;29;20477;-67
2021/06/18 12:06:43;;;;;;;7.57;7.27;;;34.80;61.10;;;;;;4917050;29;20868;-67
2021/06/18 12:09:11;;;;;;;7.00;6.80;;;34.70;61.90;;;;;;4917685;29;20469;-67
2021/06/18 12:11:41;;;;;;;8.07;7.77;;;34.80;62.20;;;;;;4917171;29;20497;-67
2021/06/18 12:14:09;;;;;;;8.33;8.03;;;35.00;62.10;;;;;;4917127;29;20481;-67
2021/06/18 12:16:38;;;;;;;8.40;8.03;;;35.20;62.20;;;;;;4917296;29;20470;-68
2021/06/18 12:19:20;;;;;;;8.47;7.97;;;35.20;61.90;;;;;;4917367;29;20474;-68
2021/06/18 12:21:58;;;;;;;8.60;8.30;;;35.30;61.10;;;;;;4916580;29;20493;-67
2021/06/18 12:24:32;;;;;;;10.13;9.73;;;35.40;62.50;;;;;;4917064;29;20529;-67
2021/06/18 12:26:59;;;;;;;9.53;9.23;;;35.40;62.90;;;;;;4917299;29;20600;-67
2021/06/18 12:29:27;;;;;;;10.83;10.07;;;35.30;63.80;;;;;;4917302;29;20481;-68
2021/06/18 12:31:55;;;;;;;10.13;9.47;;;35.10;64.70;;;;;;4921797;28;20989;-68
2021/06/18 12:34:23;;;;;;;10.20;9.50;;;35.10;66.00;;;;;;4936246;29;20451;-69
2021/06/18 12:37:01;;;;;;;10.13;9.73;;;35.20;64.90;;;;;;4935681;29;20468;-68
2021/06/18 12:39:27;;;;;;;10.30;9.90;;;35.40;65.70;;;;;;4939989;29;20470;-68
2021/06/18 12:41:54;;;;;;;11.37;10.50;;;35.50;65.90;;;;;;4941666;29;20495;-68
2021/06/18 12:44:35;;;;;;;11.30;10.80;;;35.50;64.90;;;;;;4941500;29;20468;-68
2021/06/18 12:47:04;;;;;;;10.37;9.90;;;35.80;65.30;;;;;;4941413;29;20465;-67
2021/06/18 12:49:32;;;;;;;10.10;9.70;;;35.60;64.60;;;;;;4941314;29;20473;-67
2021/06/18 12:52:10;;;;;;;10.57;9.97;;;35.70;65.10;;;;;;4935144;29;21016;-67
2021/06/18 12:54:37;;;;;;;11.40;10.80;;;35.70;64.80;;;;;;4935974;29;20555;-67
2021/06/18 12:57:04;;;;;;;10.83;10.33;;;35.80;64.20;;;;;;4935394;29;21012;-67
2021/06/18 12:59:38;;;;;;;10.43;10.03;;;35.80;65.20;;;;;;4935220;29;20468;-67
2021/06/18 13:02:04;;;;;;;11.70;11.20;;;35.90;64.60;;;;;;4935016;29;20925;-67
2021/06/18 13:04:34;;;;;;;11.30;10.80;;;35.90;64.60;;;;;;4935659;29;20471;-67
2021/06/18 13:07:01;;;;;;;10.63;10.20;;;35.80;64.30;;;;;;4935069;29;20480;-67
2021/06/18 13:09:36;;;;;;;10.00;9.70;;;35.80;63.60;;;;;;4935988;29;20474;-67
2021/06/18 13:12:04;;;;;;;10.30;9.90;;;35.90;64.10;;;;;;4935081;29;20487;-73
2021/06/18 13:14:39;;;;;;;11.70;10.87;;;35.90;64.70;;;;;;4935486;29;20472;-67
2021/06/18 13:17:07;;;;;;;10.93;10.30;;;35.80;63.80;;;;;;4935029;29;20476;-67
2021/06/18 13:19:45;;;;;;;11.00;10.43;;;35.80;64.30;;;;;;4935287;29;20473;-67
2021/06/18 13:22:13;;;;;;;11.40;10.80;;;35.70;64.00;;;;;;4919856;29;21133;-67
2021/06/18 13:24:53;;;;;;;11.10;10.40;;;35.40;64.20;;;;;;4916108;29;20465;-70
2021/06/18 13:27:19;;;;;;;10.87;10.20;;;35.10;64.20;;;;;;4916596;29;20494;-67
2021/06/18 13:29:51;;;;;;;11.67;10.67;;;35.20;64.60;;;;;;4916015;29;20480;-68
2021/06/18 13:32:18;;;;;;;10.00;9.50;;;35.40;64.00;;;;;;4915581;29;20539;-69
2021/06/18 13:34:53;;;;;;;11.00;10.40;;;35.40;63.30;;;;;;4916253;29;20851;-69
2021/06/18 13:37:23;;;;;;;11.27;10.77;;;35.30;62.80;;;;;;4914797;29;20556;-69
2021/06/18 13:40:04;;;;;;;11.77;11.27;;;35.40;63.10;;;;;;4916327;29;20507;-69
2021/06/18 13:42:31;;;;;;;10.53;10.03;;;35.40;63.20;;;;;;4915804;29;20496;-68
2021/06/18 13:44:58;;;;;;;11.60;10.83;;;35.40;62.80;;;;;;4915911;29;20821;-68
2021/06/18 13:47:24;;;;;;;11.63;11.03;;;35.50;64.20;;;;;;4915745;29;20844;-68
2021/06/18 13:50:02;;;;;;;11.33;10.63;;;35.60;63.60;;;;;;4916096;29;20472;-70
2021/06/18 13:52:28;;;;;;;11.20;10.60;;;35.70;62.90;;;;;;4914717;29;20491;-68
2021/06/18 13:54:55;;;;;;;10.70;10.20;;;35.70;62.70;;;;;;4916001;29;20468;-68
2021/06/18 13:57:22;;;;;;;11.93;11.20;;;35.70;63.50;;;;;;4915685;29;20477;-67
2021/06/18 13:59:49;;;;;;;10.30;9.90;;;35.80;63.30;;;;;;4916940;29;20837;-68
2021/06/18 14:02:15;;;;;;;10.73;10.23;;;35.70;62.90;;;;;;4933931;29;20858;-69
2021/06/18 14:04:45;;;;;;;12.07;11.47;;;35.70;62.40;;;;;;4934641;29;20483;-67
2021/06/18 14:07:13;;;;;;;12.03;11.43;;;35.60;61.90;;;;;;4933620;29;20556;-67
2021/06/18 14:09:40;;;;;;;10.53;10.10;;;35.50;62.10;;;;;;4934505;29;20469;-67
2021/06/18 14:12:08;;;;;;;10.93;10.20;;;35.40;62.90;;;;;;4937209;29;20497;-68
2021/06/18 14:14:40;;;;;;;10.90;10.40;;;35.40;62.80;;;;;;4938229;29;20934;-67
2021/06/18 14:17:07;;;;;;;10.80;10.20;;;35.40;63.00;;;;;;4937624;29;20469;-68
2021/06/18 14:19:35;;;;;;;11.03;10.40;;;35.50;62.40;;;;;;4938800;29;20471;-67
2021/06/18 14:22:02;;;;;;;11.90;11.13;;;35.50;61.70;;;;;;4937328;29;20491;-68
2021/06/18 14:24:30;;;;;;;11.93;11.30;;;35.60;63.00;;;;;;4938149;29;20495;-70
2021/06/18 14:26:57;;;;;;;11.73;11.23;;;35.50;62.50;;;;;;4938189;29;20471;-69
2021/06/18 14:29:23;;;;;;;10.40;9.80;;;35.50;61.90;;;;;;4938200;29;20472;-67
2021/06/18 14:31:52;;;;;;;11.63;11.13;;;35.50;62.50;;;;;;4938701;29;20990;-70
2021/06/18 14:34:19;;;;;;;11.47;10.87;;;35.60;61.70;;;;;;4938559;29;20493;-69
2021/06/18 14:36:46;;;;;;;12.63;11.93;;;35.60;62.50;;;;;;4937421;29;20474;-69
2021/06/18 14:39:13;;;;;;;12.27;11.57;;;35.50;62.80;;;;;;4937847;29;20467;-69
2021/06/18 14:41:41;;;;;;;11.83;11.27;;;35.30;63.30;;;;;;4937683;29;20491;-68
2021/06/18 14:44:08;;;;;;;11.80;11.00;;;35.20;62.20;;;;;;4937714;29;20497;-69
2021/06/18 14:46:35;;;;;;;12.40;11.60;;;35.00;63.30;;;;;;4937634;29;20476;-69
2021/06/18 14:49:02;;;;;;;12.80;12.00;;;34.80;64.10;;;;;;4935289;29;20489;-69
2021/06/18 14:51:29;;;;;;;12.03;11.47;;;34.70;64.30;;;;;;4918327;29;20485;-69
2021/06/18 14:53:56;;;;;;;11.23;10.73;;;34.70;65.00;;;;;;4919112;29;20472;-69
2021/06/18 14:56:23;;;;;;;11.40;10.90;;;34.70;64.90;;;;;;4918808;29;20484;-68
2021/06/18 14:58:51;;;;;;;12.87;12.17;;;34.70;65.40;;;;;;4919315;29;20877;-69
2021/06/18 15:01:18;;;;;;;11.70;11.00;;;34.70;64.90;;;;;;4918684;29;20978;-68
2021/06/18 15:03:44;;;;;;;12.07;11.40;;;34.70;65.60;;;;;;4920777;29;20499;-70
2021/06/18 15:06:11;;;;;;;11.47;10.87;;;34.70;65.30;;;;;;4920811;29;20987;-68
2021/06/18 15:08:38;;;;;;;12.20;11.70;;;34.70;66.00;;;;;;4921149;29;20820;-68
2021/06/18 15:11:05;;;;;;;12.50;11.90;;;34.90;66.90;;;;;;4921758;29;20493;-69
2021/06/18 15:13:31;;;;;;;12.40;11.50;;;35.20;67.70;;;;;;4919839;29;20477;-69
2021/06/18 15:15:59;;;;;;;12.33;11.60;;;35.30;68.10;;;;;;4919237;29;20493;-69
2021/06/18 15:18:26;;;;;;;12.57;11.90;;;35.60;69.20;;;;;;4918966;29;20469;-69
2021/06/18 15:20:53;;;;;;;13.17;12.37;;;35.70;68.00;;;;;;4920170;28;20905;-68
2021/06/18 15:23:20;;;;;;;12.77;11.70;;;35.90;68.90;;;;;;4936449;29;20502;-70
2021/06/18 15:25:46;;;;;;;12.10;11.50;;;36.10;68.40;;;;;;4937824;29;20472;-69
2021/06/18 15:28:13;;;;;;;12.83;12.07;;;36.00;69.00;;;;;;4938283;29;20550;-68
2021/06/18 15:30:40;;;;;;;13.60;12.83;;;36.00;68.30;;;;;;4940976;29;20495;-68
2021/06/18 15:33:08;;;;;;;12.97;12.37;;;35.90;69.60;;;;;;4944173;29;20574;-68
2021/06/18 15:35:35;;;;;;;13.80;13.00;;;35.70;70.20;;;;;;4944786;29;20461;-68
2021/06/18 15:38:02;;;;;;;12.73;11.90;;;35.50;71.20;;;;;;4942751;29;20504;-68
2021/06/18 15:40:28;;;;;;;13.97;12.90;;;35.30;72.00;;;;;;4943234;29;20501;-68
2021/06/18 15:42:55;;;;;;;12.43;11.73;;;35.20;72.20;;;;;;4943055;29;20477;-68
2021/06/18 15:45:22;;;;;;;12.90;12.30;;;35.20;72.60;;;;;;4943336;29;20475;-67
2021/06/18 15:47:49;;;;;;;13.13;12.63;;;35.10;70.70;;;;;;4942390;29;20523;-68
2021/06/18 15:50:19;;;;;;;14.77;13.60;;;35.00;71.40;;;;;;4943240;29;20471;-68
2021/06/18 15:52:46;;;;;;;13.30;12.60;;;34.80;70.60;;;;;;4939082;29;20847;-68
2021/06/18 15:55:13;;;;;;;13.97;13.17;;;35.00;71.80;;;;;;4936639;29;20469;-67
2021/06/18 15:57:40;;;;;;;13.07;12.47;;;35.00;70.60;;;;;;4936326;29;20481;-67
2021/06/18 16:00:09;;;;;;;12.83;12.23;;;35.00;71.30;;;;;;4937044;29;20816;-68
2021/06/18 16:02:36;;;;;;;13.57;12.50;;;35.10;71.70;;;;;;4936021;29;20488;-67
2021/06/18 16:05:06;;;;;;;12.77;12.13;;;35.20;70.80;;;;;;4936542;29;20497;-67
2021/06/18 16:07:34;;;;;;;13.20;12.60;;;35.20;72.80;;;;;;4935163;29;20856;-67
2021/06/18 16:10:00;;;;;;;13.40;12.50;;;35.10;72.60;;;;;;4933505;29;20477;-67
2021/06/18 16:12:27;;;;;;;12.40;11.80;;;35.10;70.80;;;;;;4930801;29;20861;-67
2021/06/18 16:14:54;;;;;;;12.87;12.27;;;35.10;71.50;;;;;;4936335;29;20480;-67
2021/06/18 16:17:20;;;;;;;12.10;11.40;;;35.10;70.90;;;;;;4935749;29;20477;-70
2021/06/18 16:19:47;;;;;;;12.13;11.43;;;35.10;71.50;;;;;;4936363;29;20469;-69
2021/06/18 16:22:14;;;;;;;13.50;12.50;;;34.90;70.20;;;;;;4935041;29;20491;-69
2021/06/18 16:24:43;;;;;;;12.73;11.93;;;34.60;72.40;;;;;;4936238;29;20501;-69
2021/06/18 16:27:11;;;;;;;12.80;12.10;;;34.50;72.50;;;;;;4936116;29;20491;-70
2021/06/18 16:29:38;;;;;;;12.47;11.77;;;34.20;73.40;;;;;;4936225;29;20468;-70
2021/06/18 16:32:06;;;;;;;12.10;11.50;;;33.90;74.50;;;;;;4935686;29;20590;-69
2021/06/18 16:34:33;;;;;;;13.47;12.77;;;33.60;73.90;;;;;;4936184;29;20469;-69
2021/06/18 16:37:00;;;;;;;12.63;11.73;;;33.30;74.90;;;;;;4935054;29;20473;-69
2021/06/18 16:39:27;;;;;;;12.70;12.03;;;33.10;75.50;;;;;;4936275;29;20470;-68
2021/06/18 16:41:55;;;;;;;12.70;12.10;;;32.90;76.20;;;;;;4935579;29;20490;-70
2021/06/18 16:44:22;;;;;;;13.10;12.40;;;32.80;76.80;;;;;;4936957;29;20775;-70
2021/06/18 16:46:48;;;;;;;16.77;15.77;;;32.80;77.90;;;;;;4937822;29;20479;-70